Time;durP1;ratioP1;P1;durP2;ratioP2;P2;SDS_P1;SDS_P2;PMS_P1;PMS_P2;Temp;Humidity;BMP_temperature;BMP_pressure;BME280_temperature;BME280_humidity;BME280_pressure;Samples;Min_cycle;Max_cycle;Signal;HPM_P1;HPM_P2
2023/03/21 00:01:51;;;;;;;22.80;17.10;;;;;;;10.01;61.20;101735.39;107069;1272;24370;-51
2023/03/21 00:04:24;;;;;;;23.70;16.60;;;;;;;10.00;61.21;101728.64;107171;1269;22574;-51
2023/03/21 00:06:54;;;;;;;25.50;16.90;;;;;;;9.99;61.17;101726.56;107048;1269;25273;-50
2023/03/21 00:09:23;;;;;;;25.30;16.50;;;;;;;9.98;61.13;101723.63;107055;1272;23862;-51
2023/03/21 00:11:52;;;;;;;23.10;16.40;;;;;;;9.98;61.20;101725.35;107037;1269;25402;-50
2023/03/21 00:14:22;;;;;;;22.40;16.50;;;;;;;9.96;61.15;101724.49;106852;1269;22647;-51
2023/03/21 00:16:51;;;;;;;21.70;15.90;;;;;;;9.94;61.15;101725.54;106886;1269;22522;-51
2023/03/21 00:19:25;;;;;;;22.30;16.80;;;;;;;9.92;61.25;101721.21;107062;1269;25327;-50
2023/03/21 00:21:54;;;;;;;24.30;16.50;;;;;;;9.90;61.22;101721.21;107036;1269;22520;-51
2023/03/21 00:24:35;;;;;;;21.80;16.00;;;;;;;9.88;61.23;101723.30;106234;1269;1003248;-51
2023/03/21 00:27:04;;;;;;;22.30;16.90;;;;;;;9.86;61.19;101726.95;107055;1256;26526;-51
2023/03/21 00:29:55;;;;;;;26.50;17.80;;;;;;;9.84;61.26;101723.15;107048;1269;25363;-50
2023/03/21 00:32:27;;;;;;;22.90;17.40;;;;;;;9.82;61.37;101718.83;106993;1269;25402;-50
2023/03/21 00:34:56;;;;;;;22.00;16.10;;;;;;;9.81;61.41;101719.52;106778;1270;25343;-50
2023/03/21 00:37:47;;;;;;;23.90;17.60;;;;;;;9.80;61.41;101719.70;107124;1269;25389;-49
2023/03/21 00:40:16;;;;;;;23.70;16.60;;;;;;;9.78;61.46;101717.97;106797;1275;22559;-49
2023/03/21 00:42:56;;;;;;;25.60;17.60;;;;;;;9.77;61.53;101717.11;106120;1269;1002728;-50
2023/03/21 00:45:26;;;;;;;23.00;17.00;;;;;;;9.76;61.60;101717.11;107055;1269;24366;-49
2023/03/21 00:47:55;;;;;;;22.30;16.60;;;;;;;9.75;61.69;101715.04;106990;1253;24400;-50
2023/03/21 00:50:27;;;;;;;21.00;16.40;;;;;;;9.74;61.69;101714.36;106994;1269;25399;-50
2023/03/21 00:52:57;;;;;;;23.30;16.80;;;;;;;9.73;61.74;101715.21;107080;1269;25331;-50
2023/03/21 00:55:27;;;;;;;22.50;17.00;;;;;;;9.73;61.73;101715.56;107034;1269;25370;-50
2023/03/21 00:57:55;;;;;;;23.10;17.00;;;;;;;9.72;61.72;101716.26;107054;1268;25402;-49
2023/03/21 01:00:31;;;;;;;21.00;16.80;;;;;;;9.72;61.79;101709.16;107151;1262;25503;-49
2023/03/21 01:03:04;;;;;;;24.70;18.00;;;;;;;9.71;61.81;101706.39;106905;1269;24410;-50
2023/03/21 01:06:05;;;;;;;21.90;16.80;;;;;;;9.71;61.86;101705.00;106870;1270;25410;-50
2023/03/21 01:08:37;;;;;;;21.90;16.20;;;;;;;9.70;61.90;101695.31;106047;1272;1003813;-50
2023/03/21 01:11:22;;;;;;;21.70;16.70;;;;;;;9.69;61.93;101691.84;107033;1253;25405;-50
2023/03/21 01:13:51;;;;;;;21.40;15.90;;;;;;;9.69;61.85;101693.92;106243;1269;1003389;-50
2023/03/21 01:16:35;;;;;;;21.50;15.90;;;;;;;9.69;61.90;101694.61;107082;1256;25464;-49
2023/03/21 01:19:04;;;;;;;20.90;16.40;;;;;;;9.68;62.03;101697.39;107089;1269;22524;-49
2023/03/21 01:21:39;;;;;;;20.70;16.20;;;;;;;9.67;61.96;101695.31;106828;1269;25332;-50
2023/03/21 01:24:08;;;;;;;23.90;17.00;;;;;;;9.66;61.93;101694.80;106854;1273;24290;-50
2023/03/21 01:26:37;;;;;;;22.50;17.00;;;;;;;9.66;61.93;101697.23;106952;1270;22633;-49
2023/03/21 01:29:06;;;;;;;23.60;16.40;;;;;;;9.65;62.06;101698.26;107098;1269;25414;-50
2023/03/21 01:31:35;;;;;;;20.60;16.50;;;;;;;9.64;62.00;101693.40;106261;1269;1015726;-49
2023/03/21 01:34:03;;;;;;;26.10;17.40;;;;;;;9.64;62.03;101695.48;106932;1270;24263;-49
2023/03/21 01:36:32;;;;;;;20.00;15.90;;;;;;;9.63;62.14;101698.61;106857;1270;25360;-49
2023/03/21 01:39:05;;;;;;;19.90;15.90;;;;;;;9.62;62.26;101699.99;106739;1270;25359;-53
2023/03/21 01:41:40;;;;;;;21.70;17.00;;;;;;;9.62;62.25;101699.83;106961;1268;24269;-51
2023/03/21 01:44:27;;;;;;;23.00;16.80;;;;;;;9.61;62.30;101695.14;106933;1270;26559;-50
2023/03/21 01:46:55;;;;;;;22.20;17.90;;;;;;;9.60;62.32;101691.69;106813;1269;24009;-50
2023/03/21 01:49:59;;;;;;;22.00;17.20;;;;;;;9.59;62.34;101687.36;107030;1268;26726;-51
2023/03/21 01:52:37;;;;;;;19.20;15.70;;;;;;;9.58;62.35;101690.48;106884;1269;25379;-50
2023/03/21 01:55:19;;;;;;;22.20;16.90;;;;;;;9.58;62.37;101692.90;106827;1269;25353;-50
2023/03/21 01:57:54;;;;;;;20.80;16.20;;;;;;;9.57;62.30;101699.84;107149;1269;25094;-50
2023/03/21 02:01:09;;;;;;;22.20;16.40;;;;;;;9.55;62.43;101697.27;106413;1275;24440;-51
2023/03/21 02:03:48;;;;;;;20.70;15.90;;;;;;;9.54;62.45;101697.60;106879;1269;22515;-50
2023/03/21 02:06:45;;;;;;;23.70;16.30;;;;;;;9.52;62.39;101695.35;107000;1269;25481;-50
2023/03/21 02:09:30;;;;;;;23.00;16.30;;;;;;;9.48;62.49;101693.80;106894;1272;26105;-50
2023/03/21 02:12:06;;;;;;;22.50;16.70;;;;;;;9.45;62.47;101688.97;106847;1269;25415;-50
2023/03/21 02:14:36;;;;;;;24.00;15.90;;;;;;;9.45;62.61;101685.50;106477;1268;25318;-50
2023/03/21 02:17:41;;;;;;;19.20;16.20;;;;;;;9.47;62.62;101684.63;106883;1269;22525;-51
2023/03/21 02:20:26;;;;;;;20.10;16.40;;;;;;;9.47;62.66;101687.05;106474;1275;25373;-50
2023/03/21 02:23:20;;;;;;;23.30;16.40;;;;;;;9.48;62.63;101681.69;106450;1275;22553;-50
2023/03/21 02:26:10;;;;;;;20.60;15.60;;;;;;;9.47;62.84;101683.24;106386;1275;25731;-51
2023/03/21 02:28:46;;;;;;;21.30;15.80;;;;;;;9.48;62.82;101679.27;106393;1275;22585;-50
2023/03/21 02:31:34;;;;;;;20.90;16.60;;;;;;;9.47;62.83;101679.09;106468;1276;22541;-51
2023/03/21 02:34:21;;;;;;;22.20;16.80;;;;;;;9.46;62.90;101677.36;106418;1275;22582;-51
2023/03/21 02:36:56;;;;;;;19.00;15.80;;;;;;;9.46;62.87;101671.64;106264;1277;25230;-51
2023/03/21 02:39:29;;;;;;;21.00;16.20;;;;;;;9.45;62.89;101669.56;106371;1278;25358;-50
2023/03/21 02:42:16;;;;;;;20.60;15.70;;;;;;;9.44;62.87;101667.66;106158;1276;25366;-51
2023/03/21 02:44:46;;;;;;;21.20;15.30;;;;;;;9.43;62.96;101664.73;106473;1277;22644;-49
2023/03/21 02:47:38;;;;;;;20.60;15.50;;;;;;;9.41;63.05;101663.88;106367;1277;25361;-49
2023/03/21 02:50:33;;;;;;;18.90;15.20;;;;;;;9.41;62.87;101666.98;106340;1278;22612;-50
2023/03/21 02:53:03;;;;;;;19.10;14.90;;;;;;;9.41;63.00;101662.83;106347;1276;25428;-50
2023/03/21 02:55:34;;;;;;;20.70;15.10;;;;;;;9.40;63.01;101658.84;106333;1278;25361;-50
2023/03/21 02:58:07;;;;;;;16.90;15.00;;;;;;;9.40;63.04;101657.28;106509;1270;25341;-50
2023/03/21 03:00:47;;;;;;;19.80;17.00;;;;;;;9.43;63.06;101664.02;106743;1270;24238;-50
2023/03/21 03:03:26;;;;;;;19.40;15.90;;;;;;;9.41;63.14;101658.33;106762;1272;24276;-50
2023/03/21 03:06:18;;;;;;;18.20;15.40;;;;;;;9.40;63.23;101657.27;106769;1270;25472;-50
2023/03/21 03:09:27;;;;;;;20.30;15.70;;;;;;;9.40;63.21;101663.34;106767;1272;24368;-50
2023/03/21 03:12:11;;;;;;;19.90;15.50;;;;;;;9.40;63.43;101665.94;106777;1275;26484;-50
2023/03/21 03:14:56;;;;;;;20.30;15.80;;;;;;;9.40;63.42;101660.91;106749;1274;25324;-50
2023/03/21 03:17:43;;;;;;;16.90;14.30;;;;;;;9.39;63.45;101666.48;106625;1269;22524;-50
2023/03/21 03:20:35;;;;;;;17.40;13.70;;;;;;;9.40;63.45;101668.18;106868;1270;24108;-50
2023/03/21 03:23:11;;;;;;;21.40;14.00;;;;;;;9.40;63.57;101671.48;106746;1277;22654;-51
2023/03/21 03:25:47;;;;;;;15.90;13.10;;;;;;;9.40;63.62;101666.11;106732;1271;24209;-51
2023/03/21 03:28:19;;;;;;;16.80;13.30;;;;;;;9.39;63.63;101669.77;106774;1270;25226;-51
2023/03/21 03:30:47;;;;;;;20.90;14.30;;;;;;;9.39;63.64;101669.56;106799;1272;22615;-50
2023/03/21 03:33:38;;;;;;;16.80;14.40;;;;;;;9.39;63.71;101674.77;106847;1270;22509;-50
2023/03/21 03:36:09;;;;;;;17.30;13.80;;;;;;;9.38;63.78;101673.04;106745;1270;25332;-51
2023/03/21 03:38:46;;;;;;;16.20;14.20;;;;;;;9.38;63.77;101669.75;106891;1269;25348;-51
2023/03/21 03:41:25;;;;;;;18.70;14.30;;;;;;;9.37;63.85;101666.47;106763;1273;22517;-51
2023/03/21 03:43:58;;;;;;;17.00;14.00;;;;;;;9.37;63.78;101664.04;106990;1272;24235;-51
2023/03/21 03:46:34;;;;;;;17.40;14.20;;;;;;;9.37;63.78;101664.40;106834;1272;22527;-50
2023/03/21 03:49:14;;;;;;;20.00;14.50;;;;;;;9.37;63.78;101656.60;106778;1258;23862;-51
2023/03/21 03:51:53;;;;;;;16.70;12.80;;;;;;;9.36;63.83;101657.98;106880;1269;25366;-50
2023/03/21 03:54:38;;;;;;;18.30;14.40;;;;;;;9.35;63.81;101663.35;106788;1270;22524;-50
2023/03/21 03:57:07;;;;;;;17.00;14.00;;;;;;;9.35;63.78;101664.56;107088;1269;24224;-51
2023/03/21 03:59:36;;;;;;;20.90;14.20;;;;;;;9.34;63.94;101663.71;106851;1270;24359;-51
2023/03/21 04:02:35;;;;;;;16.10;13.60;;;;;;;9.34;63.88;101664.05;106726;1276;25316;-50
2023/03/21 04:05:04;;;;;;;25.80;15.10;;;;;;;9.35;63.82;101664.91;106859;1263;25366;-50
2023/03/21 04:07:32;;;;;;;19.90;13.40;;;;;;;9.35;63.96;101672.36;107005;1261;25474;-51
2023/03/21 04:10:07;;;;;;;18.90;13.90;;;;;;;9.36;63.86;101676.52;106858;1269;25546;-50
2023/03/21 04:12:40;;;;;;;15.30;12.80;;;;;;;9.38;64.04;101672.87;106981;1268;22522;-50
2023/03/21 04:15:32;;;;;;;15.30;12.30;;;;;;;9.39;64.11;101676.33;106952;1269;25481;-50
2023/03/21 04:18:07;;;;;;;17.80;12.00;;;;;;;9.41;64.25;101678.23;106854;1272;25334;-50
2023/03/21 04:20:35;;;;;;;16.40;12.10;;;;;;;9.43;64.36;101678.40;106607;1275;25449;-50
2023/03/21 04:23:05;;;;;;;12.90;11.40;;;;;;;9.46;64.53;101677.70;107073;1269;25347;-50
2023/03/21 04:25:34;;;;;;;12.80;11.10;;;;;;;9.48;64.52;101674.23;107040;1269;25353;-50
2023/03/21 04:28:07;;;;;;;12.30;10.80;;;;;;;9.51;64.63;101669.73;106617;1268;25713;-50
2023/03/21 04:30:40;;;;;;;14.20;11.80;;;;;;;9.54;64.64;101670.74;107027;1269;25350;-50
2023/03/21 04:33:25;;;;;;;17.20;11.60;;;;;;;9.57;64.83;101667.10;106841;1268;24461;-50
2023/03/21 04:35:57;;;;;;;11.90;10.70;;;;;;;9.60;64.95;101669.34;106836;1268;24326;-50
2023/03/21 04:38:31;;;;;;;14.00;11.40;;;;;;;9.63;65.12;101672.11;106032;1270;1003450;-51
2023/03/21 04:41:02;;;;;;;;;;;;;;;9.66;65.21;101676.60;106304;1269;1003418;-50
2023/03/21 04:43:36;;;;;;;12.80;10.90;;;;;;;9.69;65.31;101682.13;106785;1270;25340;-49
2023/03/21 04:46:05;;;;;;;14.40;10.80;;;;;;;9.73;65.40;101682.81;107009;1269;22738;-50
2023/03/21 04:48:33;;;;;;;11.80;10.60;;;;;;;9.76;65.50;101681.06;106906;1269;24380;-50
2023/03/21 04:51:03;;;;;;;11.50;9.70;;;;;;;9.81;65.58;101677.92;106839;1272;25471;-51
2023/03/21 04:53:32;;;;;;;12.60;9.70;;;;;;;9.86;65.61;101668.55;106288;1269;1003174;-51
2023/03/21 04:56:00;;;;;;;10.30;8.70;;;;;;;9.90;65.77;101667.16;106802;1270;25671;-51
2023/03/21 04:58:30;;;;;;;12.80;8.90;;;;;;;9.95;65.68;101673.36;106892;1254;25536;-50
2023/03/21 05:01:01;;;;;;;12.90;8.80;;;;;;;9.99;65.74;101680.45;106142;1269;1002613;-50
2023/03/21 05:03:38;;;;;;;14.00;9.40;;;;;;;10.04;65.81;101681.48;106915;1269;25519;-50
2023/03/21 05:06:08;;;;;;;15.70;9.80;;;;;;;10.07;65.83;101678.34;106827;1269;22522;-50
2023/03/21 05:08:36;;;;;;;14.40;10.10;;;;;;;10.11;65.81;101682.85;106879;1269;25243;-50
2023/03/21 05:11:06;;;;;;;13.30;10.10;;;;;;;10.15;65.95;101687.87;106706;1275;25376;-50
2023/03/21 05:13:34;;;;;;;14.00;10.30;;;;;;;10.18;65.86;101693.73;106757;1259;26509;-50
2023/03/21 05:16:04;;;;;;;13.90;10.70;;;;;;;10.22;65.90;101697.36;107034;1269;25508;-49
2023/03/21 05:18:37;;;;;;;15.40;10.10;;;;;;;10.25;65.88;101700.64;106111;1269;1003515;-50
2023/03/21 05:21:16;;;;;;;12.90;9.90;;;;;;;10.28;65.97;101694.89;107066;1269;25379;-50
2023/03/21 05:23:53;;;;;;;14.90;10.50;;;;;;;10.32;65.93;101700.95;106956;1269;25363;-50
2023/03/21 05:26:22;;;;;;;19.30;11.20;;;;;;;10.34;65.88;101702.51;106070;1270;1003757;-50
2023/03/21 05:28:59;;;;;;;22.00;11.30;;;;;;;10.36;65.91;101700.58;106788;1270;22627;-50
2023/03/21 05:31:30;;;;;;;24.40;11.60;;;;;;;10.39;65.91;101694.48;106872;1269;22514;-49
2023/03/21 05:34:05;;;;;;;26.40;12.20;;;;;;;10.41;65.85;101691.36;107015;1269;24198;-51
2023/03/21 05:36:35;;;;;;;16.90;10.60;;;;;;;10.44;65.97;101700.18;106718;1275;27006;-49
2023/03/21 05:39:05;;;;;;;22.00;12.60;;;;;;;10.47;66.10;101697.38;106345;1270;1003205;-49
2023/03/21 05:41:35;;;;;;;23.30;13.10;;;;;;;10.50;66.09;101697.54;107114;1269;25366;-50
2023/03/21 05:44:04;;;;;;;19.40;11.60;;;;;;;10.53;66.08;101703.77;106971;1269;22543;-48
2023/03/21 05:46:37;;;;;;;17.80;12.00;;;;;;;10.57;66.05;101705.30;106799;1272;26633;-50
2023/03/21 05:49:11;;;;;;;16.00;11.50;;;;;;;10.57;66.10;101702.52;106841;1272;25325;-49
2023/03/21 05:51:42;;;;;;;22.30;13.20;;;;;;;10.60;66.11;101702.50;106743;1272;24236;-50
2023/03/21 05:54:15;;;;;;;20.10;12.90;;;;;;;10.63;66.19;101712.90;107067;1269;24525;-51
2023/03/21 05:56:47;;;;;;;31.10;17.40;;;;;;;10.65;66.33;101712.19;106992;1268;26512;-50
2023/03/21 05:59:25;;;;;;;34.60;17.80;;;;;;;10.69;66.42;101715.45;107024;1269;25509;-50
2023/03/21 06:01:54;;;;;;;31.50;19.30;;;;;;;10.72;66.40;101718.03;107020;1269;25344;-50
2023/03/21 06:04:23;;;;;;;33.80;19.10;;;;;;;10.75;66.42;101716.98;106999;1269;25411;-51
2023/03/21 06:06:52;;;;;;;40.80;20.40;;;;;;;10.77;66.53;101713.66;106844;1268;22527;-50
2023/03/21 06:09:25;;;;;;;37.20;17.90;;;;;;;10.79;66.59;101715.55;106742;1270;24545;-50
2023/03/21 06:11:58;;;;;;;28.70;16.00;;;;;;;10.83;66.68;101708.25;107056;1253;25331;-50
2023/03/21 06:14:50;;;;;;;20.30;12.80;;;;;;;10.85;66.61;101707.69;106705;1268;25481;-50
2023/03/21 06:17:23;;;;;;;23.50;14.50;;;;;;;10.87;66.64;101709.42;106899;1268;22591;-49
2023/03/21 06:20:03;;;;;;;19.90;12.50;;;;;;;10.88;66.67;101709.92;107030;1270;25353;-50
2023/03/21 06:22:38;;;;;;;17.40;11.10;;;;;;;10.89;66.68;101711.14;107027;1269;25359;-50
2023/03/21 06:25:07;;;;;;;22.40;12.20;;;;;;;10.90;66.85;101706.80;106780;1275;25319;-49
2023/03/21 06:27:36;;;;;;;17.60;12.20;;;;;;;10.93;66.96;101703.83;106892;1270;26715;-49
2023/03/21 06:30:07;;;;;;;15.00;11.10;;;;;;;10.95;66.98;101703.45;106810;1270;22637;-50
2023/03/21 06:32:43;;;;;;;16.80;11.30;;;;;;;10.99;66.91;101696.48;107009;1269;25328;-49
2023/03/21 06:35:14;;;;;;;20.10;12.20;;;;;;;11.00;66.96;101691.27;106822;1272;25297;-50
2023/03/21 06:37:44;;;;;;;13.90;10.90;;;;;;;11.04;66.94;101697.65;106993;1269;25454;-51
2023/03/21 06:40:13;;;;;;;18.00;10.90;;;;;;;11.07;67.03;101701.61;107069;1269;22527;-50
2023/03/21 06:42:42;;;;;;;16.20;11.70;;;;;;;11.10;67.00;101702.98;106872;1269;25484;-50
2023/03/21 06:45:11;;;;;;;15.80;11.40;;;;;;;11.13;66.98;101704.34;107003;1269;25331;-50
2023/03/21 06:47:40;;;;;;;17.40;11.90;;;;;;;11.16;66.98;101703.61;107001;1272;25357;-50
2023/03/21 06:50:17;;;;;;;19.10;12.30;;;;;;;11.21;66.93;101707.22;106916;1270;25520;-51
2023/03/21 06:52:47;;;;;;;19.70;12.40;;;;;;;11.24;66.89;101707.36;106844;1273;25421;-50
2023/03/21 06:55:18;;;;;;;13.50;11.90;;;;;;;11.27;66.86;101709.58;106839;1270;22560;-50
2023/03/21 06:57:46;;;;;;;17.60;12.70;;;;;;;11.27;66.90;101708.19;107034;1269;22780;-50
2023/03/21 07:03:40;;;;;;;17.60;11.70;;;;;;;11.35;66.80;101705.69;103095;1289;1002977;-50
2023/03/21 07:06:10;;;;;;;21.10;11.90;;;;;;;11.35;66.60;101707.42;106173;1284;25348;-50
2023/03/21 07:08:39;;;;;;;20.30;11.70;;;;;;;11.37;66.56;101714.70;106152;1280;24286;-51
2023/03/21 07:11:08;;;;;;;16.20;11.30;;;;;;;11.39;66.72;101713.82;106103;1286;22533;-50
2023/03/21 07:13:38;;;;;;;16.20;11.80;;;;;;;11.41;66.60;101714.85;106035;1280;25422;-50
2023/03/21 07:16:07;;;;;;;17.80;11.30;;;;;;;11.44;66.56;101722.29;106229;1282;25379;-50
2023/03/21 07:18:37;;;;;;;15.20;12.00;;;;;;;11.47;66.57;101720.52;105697;1285;25424;-50
2023/03/21 07:21:06;;;;;;;19.60;12.10;;;;;;;11.50;66.51;101711.98;106389;1279;24308;-50
2023/03/21 07:23:34;;;;;;;19.80;12.70;;;;;;;11.53;66.45;101716.11;106059;1282;22871;-50
2023/03/21 07:26:04;;;;;;;14.40;11.30;;;;;;;11.56;66.23;101716.78;106050;1282;25345;-50
2023/03/21 07:28:33;;;;;;;15.70;11.90;;;;;;;11.56;66.09;101716.24;105825;1282;24295;-50
2023/03/21 07:31:03;;;;;;;21.00;13.70;;;;;;;11.57;66.12;101716.23;105999;1282;25434;-51
2023/03/21 07:33:32;;;;;;;20.90;12.90;;;;;;;11.58;66.08;101717.45;105118;1281;1003378;-50
2023/03/21 07:36:01;;;;;;;15.20;11.10;;;;;;;11.59;66.00;101718.83;105415;1289;24221;-50
2023/03/21 07:38:36;;;;;;;18.20;12.70;;;;;;;11.60;66.02;101717.27;105634;1281;25344;-51
2023/03/21 07:41:05;;;;;;;15.60;12.40;;;;;;;11.60;65.92;101717.94;105779;1287;25359;-51
2023/03/21 07:43:34;;;;;;;14.90;11.40;;;;;;;11.62;65.97;101714.80;106471;1275;25324;-51
2023/03/21 07:46:10;;;;;;;17.80;11.70;;;;;;;11.64;65.86;101718.61;106742;1277;25328;-50
2023/03/21 07:48:40;;;;;;;14.30;11.10;;;;;;;11.65;65.58;101714.77;106303;1280;22655;-50
2023/03/21 07:51:08;;;;;;;13.00;10.50;;;;;;;11.66;65.58;101711.98;106704;1275;25619;-49
2023/03/21 07:53:40;;;;;;;15.20;10.70;;;;;;;11.66;65.49;101713.02;106426;1275;25517;-50
2023/03/21 07:56:09;;;;;;;12.20;10.80;;;;;;;11.66;65.46;101710.59;106760;1270;24471;-50
2023/03/21 07:58:42;;;;;;;16.30;11.30;;;;;;;11.69;65.43;101713.02;106654;1270;25436;-50
2023/03/21 08:01:11;;;;;;;17.20;11.40;;;;;;;11.72;65.41;101715.24;106862;1269;25359;-50
2023/03/21 08:03:39;;;;;;;16.30;10.50;;;;;;;11.73;65.21;101712.10;106032;1270;1003144;-49
2023/03/21 08:06:08;;;;;;;14.70;9.90;;;;;;;11.73;65.21;101715.92;107116;1266;27263;-50
2023/03/21 08:08:37;;;;;;;14.70;10.70;;;;;;;11.72;65.15;101715.76;106334;1272;1002554;-51
2023/03/21 08:11:06;;;;;;;13.10;9.70;;;;;;;11.74;65.14;101717.64;107148;1266;25408;-49
2023/03/21 08:13:37;;;;;;;12.50;10.10;;;;;;;11.75;64.84;101721.27;107071;1266;25411;-49
2023/03/21 08:16:07;;;;;;;14.70;11.10;;;;;;;11.73;64.72;101724.45;107218;1267;25340;-49
2023/03/21 08:18:35;;;;;;;13.10;10.20;;;;;;;11.71;64.83;101720.46;106814;1269;22637;-50
2023/03/21 08:21:06;;;;;;;10.20;8.40;;;;;;;11.71;64.83;101720.47;107046;1273;25331;-49
2023/03/21 08:23:37;;;;;;;16.30;11.40;;;;;;;11.70;64.83;101713.35;107116;1267;25434;-49
2023/03/21 08:26:06;;;;;;;20.70;12.20;;;;;;;11.72;64.77;101716.11;107137;1267;22521;-49
2023/03/21 08:28:38;;;;;;;15.80;12.10;;;;;;;11.73;64.76;101717.65;107096;1267;22541;-50
2023/03/21 08:31:07;;;;;;;13.20;10.60;;;;;;;11.74;64.62;101716.77;106851;1267;22533;-49
2023/03/21 08:33:36;;;;;;;12.10;9.90;;;;;;;11.76;64.46;101714.16;107071;1267;25329;-49
2023/03/21 08:36:05;;;;;;;16.30;10.70;;;;;;;11.77;64.39;101711.36;107128;1267;22529;-50
2023/03/21 08:38:34;;;;;;;15.50;11.20;;;;;;;11.78;64.32;101713.95;107089;1267;22514;-50
2023/03/21 08:41:03;;;;;;;12.90;10.20;;;;;;;11.76;64.26;101712.92;107147;1271;22517;-49
2023/03/21 08:43:33;;;;;;;16.00;11.30;;;;;;;11.74;64.46;101711.40;107071;1266;25359;-50
2023/03/21 08:46:03;;;;;;;17.70;14.00;;;;;;;11.74;64.61;101714.86;107030;1273;22509;-50
2023/03/21 08:48:32;;;;;;;17.80;13.60;;;;;;;11.77;64.45;101710.32;107145;1270;22642;-50
2023/03/21 08:51:01;;;;;;;15.90;12.50;;;;;;;11.78;64.55;101710.14;106844;1274;25334;-50
2023/03/21 08:53:30;;;;;;;13.50;11.00;;;;;;;11.79;64.58;101708.56;106335;1257;1002436;-50
2023/03/21 08:55:58;;;;;;;18.80;12.20;;;;;;;11.84;64.66;101708.85;107106;1267;25343;-50
2023/03/21 08:58:27;;;;;;;16.30;13.40;;;;;;;11.89;64.54;101709.65;106205;1269;1002946;-50
2023/03/21 09:00:55;;;;;;;19.30;14.70;;;;;;;11.93;64.39;101709.08;107170;1270;22538;-50
2023/03/21 09:03:26;;;;;;;19.10;15.70;;;;;;;11.98;64.24;101708.67;106922;1270;25363;-50
2023/03/21 09:05:55;;;;;;;19.70;15.90;;;;;;;12.02;64.03;101710.88;107169;1266;22644;-50
2023/03/21 09:08:24;;;;;;;25.50;18.00;;;;;;;12.04;63.90;101707.91;107029;1251;26495;-50
2023/03/21 09:10:53;;;;;;;24.40;17.20;;;;;;;12.07;63.77;101706.48;107118;1271;25334;-50
2023/03/21 09:13:27;;;;;;;21.30;16.00;;;;;;;12.09;63.64;101709.23;106807;1270;25340;-49
2023/03/21 09:16:00;;;;;;;25.90;18.00;;;;;;;12.11;63.60;101708.85;106889;1273;25290;-50
2023/03/21 09:18:44;;;;;;;20.30;16.40;;;;;;;12.14;63.66;101710.39;107144;1270;22509;-50
2023/03/21 09:21:15;;;;;;;21.70;15.10;;;;;;;12.17;63.55;101702.70;106834;1267;25340;-50
2023/03/21 09:23:45;;;;;;;20.60;15.70;;;;;;;12.17;63.69;101703.04;107196;1270;22636;-50
2023/03/21 09:26:14;;;;;;;19.60;15.30;;;;;;;12.20;63.46;101703.86;106355;1266;1015696;-50
2023/03/21 09:28:43;;;;;;;26.70;16.60;;;;;;;12.22;63.35;101698.79;107108;1267;23854;-50
2023/03/21 09:31:15;;;;;;;27.30;18.90;;;;;;;12.22;63.46;101697.05;107132;1258;22523;-50
2023/03/21 09:33:45;;;;;;;23.40;16.10;;;;;;;12.23;63.37;101694.77;107114;1252;25352;-50
2023/03/21 09:36:14;;;;;;;20.20;14.80;;;;;;;12.23;63.52;101698.42;107116;1271;25826;-50
2023/03/21 09:38:44;;;;;;;18.60;13.30;;;;;;;12.25;63.52;101698.08;106950;1267;22519;-50
2023/03/21 09:41:25;;;;;;;20.60;15.10;;;;;;;12.29;63.43;101690.53;107050;1271;22785;-50
2023/03/21 09:44:31;;;;;;;26.00;17.20;;;;;;;12.33;63.25;101690.13;107032;1267;22535;-50
2023/03/21 09:47:20;;;;;;;25.80;17.60;;;;;;;12.37;62.96;101689.88;106162;1267;1002994;-50
2023/03/21 09:50:11;;;;;;;28.10;19.00;;;;;;;12.38;63.05;101690.39;107289;1266;22628;-50
2023/03/21 09:53:07;;;;;;;31.90;20.10;;;;;;;12.41;63.09;101691.91;106864;1274;25353;-50
2023/03/21 09:55:38;;;;;;;31.40;20.30;;;;;;;12.44;63.04;101685.80;107146;1266;25334;-50
2023/03/21 09:58:15;;;;;;;31.20;18.80;;;;;;;12.45;63.03;101688.71;106403;1267;1003075;-50
2023/03/21 10:00:46;;;;;;;28.20;18.20;;;;;;;12.44;63.10;101684.57;106874;1267;23294;-49
2023/03/21 10:03:26;;;;;;;26.60;18.10;;;;;;;12.44;63.08;101686.83;106362;1267;1003097;-49
2023/03/21 10:05:57;;;;;;;29.90;18.30;;;;;;;12.48;62.82;101687.65;107115;1274;22643;-49
2023/03/21 10:08:38;;;;;;;23.10;17.00;;;;;;;12.50;62.85;101686.56;106758;1273;25353;-50
2023/03/21 10:11:12;;;;;;;25.40;18.00;;;;;;;12.52;62.87;101687.91;106821;1275;25172;-50
2023/03/21 10:13:54;;;;;;;25.90;16.00;;;;;;;12.54;62.75;101686.50;106854;1268;24008;-50
2023/03/21 10:16:28;;;;;;;21.50;16.00;;;;;;;12.56;62.69;101685.95;106924;1267;24303;-51
2023/03/21 10:18:59;;;;;;;18.90;14.70;;;;;;;12.59;62.50;101688.69;107102;1267;22568;-50
2023/03/21 10:21:31;;;;;;;21.90;14.20;;;;;;;12.63;62.38;101689.84;107086;1267;25481;-50
2023/03/21 10:24:21;;;;;;;25.20;13.80;;;;;;;12.66;62.30;101687.35;107000;1267;25322;-49
2023/03/21 10:26:50;;;;;;;17.80;14.20;;;;;;;12.70;62.17;101680.67;107082;1267;25350;-49
2023/03/21 10:29:22;;;;;;;19.70;14.30;;;;;;;12.75;62.15;101679.55;107131;1267;23896;-49
2023/03/21 10:31:51;;;;;;;21.20;13.70;;;;;;;12.82;61.99;101678.56;107156;1266;22522;-50
2023/03/21 10:34:39;;;;;;;20.90;13.80;;;;;;;12.88;61.81;101681.08;106883;1267;25411;-49
2023/03/21 10:37:07;;;;;;;16.70;11.70;;;;;;;12.93;61.48;101674.38;107091;1271;22531;-50
2023/03/21 10:39:40;;;;;;;13.20;11.10;;;;;;;12.97;61.08;101665.06;106902;1273;25087;-49
2023/03/21 10:42:18;;;;;;;13.90;10.00;;;;;;;13.02;60.95;101660.82;107158;1267;22510;-49
2023/03/21 10:44:48;;;;;;;13.60;11.50;;;;;;;13.06;60.80;101653.80;106350;1270;1003080;-49
2023/03/21 10:47:28;;;;;;;12.60;10.50;;;;;;;13.12;60.79;101651.11;107138;1267;22536;-49
2023/03/21 10:50:07;;;;;;;12.00;10.50;;;;;;;13.20;60.57;101648.00;106948;1267;24209;-49
2023/03/21 10:52:49;;;;;;;18.50;11.10;;;;;;;13.28;60.40;101650.11;106883;1267;25320;-49
2023/03/21 10:55:31;;;;;;;15.50;11.40;;;;;;;13.35;60.24;101648.92;106396;1267;1003231;-49
2023/03/21 10:58:09;;;;;;;15.80;11.10;;;;;;;13.39;60.00;101652.67;107088;1267;25319;-50
2023/03/21 11:00:40;;;;;;;14.50;11.40;;;;;;;13.47;59.78;101650.60;106944;1266;22517;-50
2023/03/21 11:03:36;;;;;;;13.90;11.00;;;;;;;13.52;59.59;101650.85;106931;1267;25315;-49
2023/03/21 11:06:06;;;;;;;14.80;10.20;;;;;;;13.55;59.44;101648.37;106450;1282;25486;-49
2023/03/21 11:09:02;;;;;;;17.60;11.50;;;;;;;13.58;59.58;101644.98;106568;1275;22497;-49
2023/03/21 11:11:49;;;;;;;15.30;11.00;;;;;;;13.63;59.32;101639.11;105866;1283;22536;-49
2023/03/21 11:14:26;;;;;;;14.80;11.50;;;;;;;13.65;59.10;101638.90;105748;1283;24240;-49
2023/03/21 11:16:55;;;;;;;19.10;12.10;;;;;;;13.66;58.94;101636.64;105942;1283;25423;-49
2023/03/21 11:19:31;;;;;;;16.70;11.50;;;;;;;13.65;58.82;101639.95;105885;1283;25374;-49
2023/03/21 11:22:04;;;;;;;17.30;11.50;;;;;;;13.61;58.86;101636.91;105816;1287;25385;-50
2023/03/21 11:24:36;;;;;;;25.20;12.50;;;;;;;13.59;59.05;101634.33;105833;1287;22575;-49
2023/03/21 11:27:06;;;;;;;20.30;12.70;;;;;;;13.59;59.04;101636.59;105823;1287;22615;-49
2023/03/21 11:29:39;;;;;;;21.90;12.10;;;;;;;13.60;58.91;101639.88;105718;1287;22543;-49
2023/03/21 11:32:23;;;;;;;18.50;12.00;;;;;;;13.60;58.91;101632.22;105855;1285;25322;-49
2023/03/21 11:35:19;;;;;;;17.40;11.40;;;;;;;13.59;59.02;101632.05;105800;1284;24355;-49
2023/03/21 11:37:56;;;;;;;16.40;11.50;;;;;;;13.61;58.86;101632.90;105876;1283;25397;-47
2023/03/21 11:40:28;;;;;;;21.20;11.80;;;;;;;13.61;58.85;101631.32;105908;1284;25601;-48
2023/03/21 11:43:17;;;;;;;19.00;11.70;;;;;;;13.62;58.81;101630.44;106175;1279;22522;-48